TimeCDT,TemperatureF,Dew PointF,Humidity,Sea Level PressureIn,VisibilityMPH,Wind Direction,Wind SpeedMPH,Gust SpeedMPH,PrecipitationIn,Events,Conditions,WindDirDegrees,DateUTC
12:35 AM,62.8,57.2,82,29.79,10.0,North,4.6,-,N/A,,Clear,360,2013-06-30 05:35:00
12:55 AM,62.2,57.4,84,29.79,10.0,North,4.6,-,N/A,,Clear,360,2013-06-30 05:55:00
1:35 AM,61.7,57.4,86,29.79,10.0,North,5.8,-,N/A,,Clear,360,2013-06-30 06:35:00
1:55 AM,62.6,57.2,82,29.79,10.0,North,4.6,-,N/A,,Clear,10,2013-06-30 06:55:00
2:15 AM,62.1,57.2,84,29.79,10.0,North,8.1,-,N/A,,Clear,360,2013-06-30 07:15:00
2:35 AM,61.7,57.2,85,29.79,10.0,NNW,5.8,-,N/A,,Clear,340,2013-06-30 07:35:00
2:55 AM,61.2,57.2,87,29.79,10.0,North,4.6,-,N/A,,Clear,350,2013-06-30 07:55:00
3:15 AM,61.0,57.2,87,29.80,10.0,North,4.6,-,N/A,,Scattered Clouds,350,2013-06-30 08:15:00
3:35 AM,61.2,57.2,87,29.79,10.0,North,3.5,-,N/A,,Mostly Cloudy,350,2013-06-30 08:35:00
3:55 AM,61.0,57.2,87,29.79,10.0,North,4.6,-,N/A,,Mostly Cloudy,360,2013-06-30 08:55:00
4:15 AM,60.8,57.2,88,29.80,10.0,North,4.6,-,N/A,,Scattered Clouds,350,2013-06-30 09:15:00
4:35 AM,61.0,57.4,88,29.80,10.0,North,6.9,-,N/A,,Mostly Cloudy,360,2013-06-30 09:35:00
4:55 AM,61.0,57.6,88,29.81,10.0,North,5.8,-,N/A,,Overcast,350,2013-06-30 09:55:00
5:15 AM,61.0,57.6,88,29.82,10.0,North,4.6,-,N/A,,Mostly Cloudy,360,2013-06-30 10:15:00
5:35 AM,60.8,57.6,89,29.82,10.0,North,4.6,-,N/A,,Mostly Cloudy,360,2013-06-30 10:35:00
5:55 AM,61.0,57.7,89,29.83,10.0,North,5.8,-,N/A,,Scattered Clouds,360,2013-06-30 10:55:00
6:15 AM,61.7,58.1,88,29.83,10.0,North,6.9,-,N/A,,Mostly Cloudy,10,2013-06-30 11:15:00
6:35 AM,62.1,58.1,87,29.84,10.0,North,6.9,-,N/A,,Overcast,360,2013-06-30 11:35:00
6:55 AM,62.6,58.1,85,29.85,10.0,North,6.9,-,N/A,,Overcast,360,2013-06-30 11:55:00
7:15 AM,62.8,58.3,85,29.86,10.0,North,8.1,-,N/A,,Overcast,360,2013-06-30 12:15:00
7:55 AM,63.5,58.1,83,29.87,10.0,North,6.9,-,N/A,,Overcast,10,2013-06-30 12:55:00
8:15 AM,64.6,58.5,80,29.87,10.0,North,5.8,-,N/A,,Overcast,10,2013-06-30 13:15:00
8:55 AM,67.3,59.7,77,29.88,10.0,North,11.5,-,N/A,,Clear,10,2013-06-30 13:55:00
9:15 AM,66.0,58.8,78,29.88,10.0,NNE,5.8,-,N/A,,Clear,20,2013-06-30 14:15:00
9:35 AM,66.2,58.3,76,29.88,10.0,North,4.6,-,N/A,,Clear,10,2013-06-30 14:35:00
9:55 AM,67.6,59.2,74,29.89,10.0,North,5.8,-,N/A,,Clear,10,2013-06-30 14:55:00
10:15 AM,68.2,58.8,72,29.89,10.0,NNE,6.9,-,N/A,,Clear,20,2013-06-30 15:15:00
10:35 AM,68.9,59.7,72,29.90,10.0,North,5.8,-,N/A,,Scattered Clouds,10,2013-06-30 15:35:00
10:55 AM,68.0,58.8,72,29.90,10.0,North,6.9,-,N/A,,Mostly Cloudy,10,2013-06-30 15:55:00
11:15 AM,68.9,59.0,71,29.90,10.0,North,6.9,-,N/A,,Mostly Cloudy,360,2013-06-30 16:15:00
11:35 AM,71.1,60.8,70,29.90,10.0,NNE,4.6,-,N/A,,Mostly Cloudy,30,2013-06-30 16:35:00
11:55 AM,72.1,61.2,68,29.90,10.0,NE,9.2,-,N/A,,Scattered Clouds,50,2013-06-30 16:55:00
12:15 PM,73.6,61.5,66,29.90,10.0,NE,9.2,-,N/A,,Clear,40,2013-06-30 17:15:00
12:35 PM,75.4,62.1,63,29.91,10.0,NE,9.2,-,N/A,,Clear,40,2013-06-30 17:35:00
12:55 PM,75.0,61.2,62,29.91,10.0,NE,10.4,-,N/A,,Scattered Clouds,40,2013-06-30 17:55:00
1:15 PM,74.5,61.0,63,29.91,10.0,NNE,8.1,18.4,N/A,,Clear,30,2013-06-30 18:15:00
1:35 PM,75.7,61.2,60,29.91,10.0,NNE,6.9,17.3,N/A,,Scattered Clouds,30,2013-06-30 18:35:00
1:55 PM,75.9,61.2,60,29.90,10.0,NNE,9.2,-,N/A,,Scattered Clouds,20,2013-06-30 18:55:00
2:15 PM,75.7,61.9,62,29.90,10.0,North,10.4,-,N/A,,Scattered Clouds,10,2013-06-30 19:15:00
2:35 PM,76.8,60.6,57,29.90,10.0,NE,10.4,16.1,N/A,,Clear,50,2013-06-30 19:35:00
3:15 PM,77.9,61.2,56,29.89,10.0,NE,6.9,17.3,N/A,,Scattered Clouds,40,2013-06-30 20:15:00
3:35 PM,74.8,61.7,64,29.90,10.0,North,5.8,-,N/A,,Scattered Clouds,10,2013-06-30 20:35:00
4:15 PM,75.4,62.2,64,29.90,10.0,NNE,4.6,-,N/A,,Scattered Clouds,20,2013-06-30 21:15:00
4:35 PM,74.7,61.7,64,29.90,10.0,North,9.2,17.3,N/A,,Clear,360,2013-06-30 21:35:00
4:55 PM,74.3,62.4,66,29.91,10.0,North,9.2,16.1,N/A,Rain,Rain,10,2013-06-30 21:55:00
5:15 PM,71.8,63.7,76,29.91,10.0,North,3.5,-,N/A,,Scattered Clouds,360,2013-06-30 22:15:00
5:35 PM,72.9,63.1,71,29.91,10.0,North,4.6,-,N/A,,Clear,350,2013-06-30 22:35:00
5:55 PM,74.1,63.3,69,29.92,10.0,North,4.6,-,N/A,,Clear,10,2013-06-30 22:55:00
6:15 PM,76.3,62.6,62,29.91,10.0,NNE,5.8,-,N/A,,Clear,20,2013-06-30 23:15:00
6:35 PM,75.9,59.9,57,29.92,10.0,NNE,6.9,-,N/A,,Clear,30,2013-06-30 23:35:00
7:15 PM,74.1,56.3,54,29.93,10.0,NE,6.9,-,N/A,,Scattered Clouds,50,2013-07-01 00:15:00
7:35 PM,73.6,55.4,53,29.93,10.0,NNE,4.6,-,N/A,,Scattered Clouds,30,2013-07-01 00:35:00
7:55 PM,72.5,54.0,52,29.94,10.0,NE,6.9,-,N/A,,Mostly Cloudy,40,2013-07-01 00:55:00
8:15 PM,71.1,53.4,54,29.94,10.0,NNE,3.5,-,N/A,,Scattered Clouds,30,2013-07-01 01:15:00
8:35 PM,69.4,53.8,57,29.95,10.0,Calm,Calm,-,N/A,,Clear,0,2013-07-01 01:35:00
8:55 PM,68.4,53.8,60,29.95,10.0,NNE,4.6,-,N/A,,Clear,20,2013-07-01 01:55:00
9:15 PM,68.5,51.8,55,29.96,10.0,NNE,4.6,-,N/A,,Scattered Clouds,20,2013-07-01 02:15:00
9:35 PM,68.4,50.5,53,29.97,10.0,NNE,5.8,-,N/A,,Mostly Cloudy,30,2013-07-01 02:35:00
9:55 PM,67.8,50.2,53,29.98,10.0,NNE,4.6,-,N/A,,Scattered Clouds,20,2013-07-01 02:55:00
10:15 PM,66.6,49.1,53,29.99,10.0,NNE,5.8,-,N/A,,Scattered Clouds,20,2013-07-01 03:15:00
10:35 PM,66.9,46.0,47,29.99,10.0,NNE,5.8,-,N/A,,Scattered Clouds,30,2013-07-01 03:35:00
10:55 PM,66.0,46.0,48,29.99,10.0,NNE,8.1,-,N/A,,Scattered Clouds,30,2013-07-01 03:55:00
11:15 PM,64.9,46.2,51,29.99,10.0,NNE,3.5,-,N/A,,Clear,30,2013-07-01 04:15:00
11:35 PM,63.0,49.1,61,29.99,10.0,North,3.5,-,N/A,,Clear,10,2013-07-01 04:35:00
11:55 PM,64.0,48.2,56,29.99,10.0,North,4.6,-,N/A,,Clear,10,2013-07-01 04:55:00